Onego Capri — V2ED7 — position and weather

sailwx.info

Track history (hours):
 
Tides and Currents Weather Stations Pressure Air Temp Water Temp Dewpoint Dewpoint Depression Visibility Wind Speed Wind Dir Waves Ship Positions

Onego Capri

Last reported at 2018-Jan-22 17:30 UTC. Time now 2018-Jan-22 18:00 UTC.
Position N 51°42' E 004°36'.

Length 140 m; draft 6.1 m.

Type: Cargo ship. MMSI: 305394000.

Date/timePositionNaut miles runAvg speedWind from/ knotsBaromVisibWave heightAir tempDewpointWater temp
2018-Jan-22 17:30N 51°42' E 004°36'0 0.0
2018-Jan-22 17:00N 51°42' E 004°36'0 0.0
2018-Jan-22 16:30N 51°42' E 004°36'0 0.0
2018-Jan-22 16:00N 51°42' E 004°36'0 0.0
2018-Jan-22 15:29N 51°42' E 004°36'0 0.0
2018-Jan-22 15:00N 51°42' E 004°36'0 0.0
2018-Jan-22 14:30N 51°42' E 004°36'0 0.0
2018-Jan-22 14:00N 51°42' E 004°36'0 0.0
2018-Jan-22 13:30N 51°42' E 004°36'0 0.0
2018-Jan-22 13:00N 51°42' E 004°36'0 0.0
2018-Jan-22 12:28N 51°42' E 004°36'0 0.0
2018-Jan-22 12:00N 51°42' E 004°36'0 0.0
2018-Jan-22 11:30N 51°42' E 004°36'0 0.0
2018-Jan-22 11:00N 51°42' E 004°36'0 0.0
2018-Jan-22 10:30N 51°42' E 004°36'0 0.0
2018-Jan-22 10:00N 51°42' E 004°36'0 0.0
2018-Jan-22 09:30N 51°42' E 004°36'0 0.0
2018-Jan-22 09:00N 51°42' E 004°36'0 0.0
2018-Jan-22 08:30N 51°42' E 004°36'0 0.0
2018-Jan-22 08:00N 51°42' E 004°36'0 0.0
2018-Jan-22 07:30N 51°42' E 004°36'0 0.0
2018-Jan-22 07:00N 51°42' E 004°36'0 0.0
2018-Jan-22 06:30N 51°42' E 004°36'0 0.0
2018-Jan-22 06:00N 51°42' E 004°36'0 0.0
2018-Jan-22 05:30N 51°42' E 004°36'0 0.0
2018-Jan-22 05:00N 51°42' E 004°36'0 0.0
2018-Jan-22 04:30N 51°42' E 004°36'0 0.0
2018-Jan-22 04:00N 51°42' E 004°36'0 0.0
2018-Jan-22 03:30N 51°42' E 004°36'0 0.0
2018-Jan-22 03:00N 51°42' E 004°36'0 0.0
2018-Jan-22 02:30N 51°42' E 004°36'0 0.0
2018-Jan-22 02:00N 51°42' E 004°36'0 0.0
2018-Jan-22 01:29N 51°42' E 004°36'0 0.0
2018-Jan-22 01:00N 51°42' E 004°36'0 0.0
2018-Jan-22 00:30N 51°42' E 004°36'0 0.0
2018-Jan-22 00:00N 51°42' E 004°36'0 0.0
2018-Jan-21 23:30N 51°42' E 004°36'0 0.0
2018-Jan-21 23:00N 51°42' E 004°36'0 0.0
2018-Jan-21 22:30N 51°42' E 004°36'0 0.0
2018-Jan-21 22:00N 51°42' E 004°36'0 0.0
2018-Jan-21 21:30N 51°42' E 004°36'0 0.0
2018-Jan-21 21:00N 51°42' E 004°36'0 0.0
2018-Jan-21 20:30N 51°42' E 004°36'0 0.0
2018-Jan-21 20:00N 51°42' E 004°36'0 0.0
2018-Jan-21 19:30N 51°42' E 004°36'0 0.0
2018-Jan-21 19:00N 51°42' E 004°36'0 0.0
2018-Jan-21 18:30N 51°42' E 004°36'0 0.0
2018-Jan-21 18:00N 51°42' E 004°36'1 3.0
2018-Jan-21 17:30N 51°43' E 004°37'5 9.3
2018-Jan-21 17:00N 51°48' E 004°37'4 8.5
2018-Jan-21 16:31N 51°50' E 004°31'5 9.5
2018-Jan-21 16:00N 51°51' E 004°24'4 8.0
2018-Jan-21 15:31N 51°54' E 004°19'4 7.0
2018-Jan-21 15:00N 51°55' E 004°25'0 0.0
2018-Jan-21 14:28N 51°55' E 004°25'0 0.0
2018-Jan-21 13:58N 51°55' E 004°25'0 0.0
2018-Jan-21 13:28N 51°55' E 004°25'0 0.0
2018-Jan-21 12:58N 51°55' E 004°25'0 0.0
2018-Jan-21 12:28N 51°55' E 004°25'0 0.0
2018-Jan-21 11:58N 51°55' E 004°25'0 0.0
2018-Jan-21 11:28N 51°55' E 004°25'0 0.0
2018-Jan-21 10:58N 51°55' E 004°25'0 0.0
2018-Jan-21 10:28N 51°55' E 004°25'0 0.0
2018-Jan-21 09:58N 51°55' E 004°25'0 0.0
2018-Jan-21 09:28N 51°55' E 004°25'0 0.0
2018-Jan-21 08:58N 51°55' E 004°25'0 0.0
2018-Jan-21 08:28N 51°55' E 004°25'0 0.0
2018-Jan-21 07:58N 51°55' E 004°25'0 0.0
2018-Jan-21 07:28N 51°55' E 004°25'0 0.0
2018-Jan-21 06:58N 51°55' E 004°25'0 0.0
2018-Jan-21 06:28N 51°55' E 004°25'0 0.0
2018-Jan-21 05:58N 51°55' E 004°25'0 0.0
2018-Jan-21 05:28N 51°55' E 004°25'0 0.0
2018-Jan-21 04:58N 51°55' E 004°25'0 0.0
2018-Jan-21 04:28N 51°55' E 004°25'0 0.0
2018-Jan-21 03:58N 51°55' E 004°25'0 0.0
2018-Jan-21 03:28N 51°55' E 004°25'0 0.0
2018-Jan-21 02:58N 51°55' E 004°25'0 0.0
2018-Jan-21 02:28N 51°55' E 004°25'0 0.0
2018-Jan-21 01:58N 51°55' E 004°25'0 0.0
2018-Jan-21 01:28N 51°55' E 004°25'0 0.0
2018-Jan-21 00:58N 51°55' E 004°25'0 0.0
2018-Jan-21 00:30N 51°55' E 004°25'1 2.1
2018-Jan-21 00:01N 51°54' E 004°24'5 9.4
2018-Jan-20 23:31N 51°54' E 004°16'510.1
2018-Jan-20 23:01N 51°57' E 004°10'510.2
2018-Jan-20 22:31N 51°59' E 004°02'510.9
2018-Jan-20 22:01N 52°00' E 003°54'510.3
2018-Jan-20 21:31N 51°59' E 003°45'711.8
2018-Jan-20 20:54N 51°57' E 003°34'5112.4
2018-Jan-20 16:48N 51°34' E 002°21'414.1
2018-Jan-20 16:30N 51°31' E 002°17'714.6
2018-Jan-20 16:01N 51°25' E 002°09'713.9
2018-Jan-20 15:30N 51°19' E 002°07'714.1
2018-Jan-20 15:00N 51°13' E 002°01'815.2
2018-Jan-20 14:30N 51°08' E 001°51'815.6
2018-Jan-20 14:01N 51°03' E 001°42'816.2
2018-Jan-20 13:29N 50°57' E 001°33'1016.1
2018-Jan-20 12:53N 50°48' E 001°25'4613.5
2018-Jan-20 09:30N 50°23' E 000°26'913.9
2018-Jan-20 08:49N 50°20' E 000°11'413.5
2018-Jan-20 08:29N 50°19' E 000°05'613.1
2018-Jan-20 08:00N 50°17' W 000°05'712.7
2018-Jan-20 07:27N 50°15' W 000°16'10011.4
2018-Jan-19 22:41N 49°49' W 002°45'313.8
2018-Jan-19 22:29N 49°48' W 002°50'1113.9
2018-Jan-19 21:43N 49°43' W 003°04'513.9
2018-Jan-19 21:22N 49°40' W 003°11'513.8
2018-Jan-19 20:58N 49°38' W 003°18'  
Track history (hours):
 
Tides and Currents Weather Stations Pressure Air Temp Water Temp Dewpoint Dewpoint Depression Visibility Wind Speed Wind Dir Waves Ship Positions

Onego Capri

Last reported at 2018-Jan-22 17:30 UTC. Time now 2018-Jan-22 18:00 UTC.
Position N 51°42' E 004°36'.

Length 140 m; draft 6.1 m.

Type: Cargo ship. MMSI: 305394000.

Date/timePositionNaut miles runAvg speedWind from/ knotsBaromVisibWave heightAir tempDewpointWater temp
2018-Jan-22 17:30N 51°42' E 004°36'0 0.0
2018-Jan-22 17:00N 51°42' E 004°36'0 0.0
2018-Jan-22 16:30N 51°42' E 004°36'0 0.0
2018-Jan-22 16:00N 51°42' E 004°36'0 0.0
2018-Jan-22 15:29N 51°42' E 004°36'0 0.0
2018-Jan-22 15:00N 51°42' E 004°36'0 0.0
2018-Jan-22 14:30N 51°42' E 004°36'0 0.0
2018-Jan-22 14:00N 51°42' E 004°36'0 0.0
2018-Jan-22 13:30N 51°42' E 004°36'0 0.0
2018-Jan-22 13:00N 51°42' E 004°36'0 0.0
2018-Jan-22 12:28N 51°42' E 004°36'0 0.0
2018-Jan-22 12:00N 51°42' E 004°36'0 0.0
2018-Jan-22 11:30N 51°42' E 004°36'0 0.0
2018-Jan-22 11:00N 51°42' E 004°36'0 0.0
2018-Jan-22 10:30N 51°42' E 004°36'0 0.0
2018-Jan-22 10:00N 51°42' E 004°36'0 0.0
2018-Jan-22 09:30N 51°42' E 004°36'0 0.0
2018-Jan-22 09:00N 51°42' E 004°36'0 0.0
2018-Jan-22 08:30N 51°42' E 004°36'0 0.0
2018-Jan-22 08:00N 51°42' E 004°36'0 0.0
2018-Jan-22 07:30N 51°42' E 004°36'0 0.0
2018-Jan-22 07:00N 51°42' E 004°36'0 0.0
2018-Jan-22 06:30N 51°42' E 004°36'0 0.0
2018-Jan-22 06:00N 51°42' E 004°36'0 0.0
2018-Jan-22 05:30N 51°42' E 004°36'0 0.0
2018-Jan-22 05:00N 51°42' E 004°36'0 0.0
2018-Jan-22 04:30N 51°42' E 004°36'0 0.0
2018-Jan-22 04:00N 51°42' E 004°36'0 0.0
2018-Jan-22 03:30N 51°42' E 004°36'0 0.0
2018-Jan-22 03:00N 51°42' E 004°36'0 0.0
2018-Jan-22 02:30N 51°42' E 004°36'0 0.0
2018-Jan-22 02:00N 51°42' E 004°36'0 0.0
2018-Jan-22 01:29N 51°42' E 004°36'0 0.0
2018-Jan-22 01:00N 51°42' E 004°36'0 0.0
2018-Jan-22 00:30N 51°42' E 004°36'0 0.0
2018-Jan-22 00:00N 51°42' E 004°36'0 0.0
2018-Jan-21 23:30N 51°42' E 004°36'0 0.0
2018-Jan-21 23:00N 51°42' E 004°36'0 0.0
2018-Jan-21 22:30N 51°42' E 004°36'0 0.0
2018-Jan-21 22:00N 51°42' E 004°36'0 0.0
2018-Jan-21 21:30N 51°42' E 004°36'0 0.0
2018-Jan-21 21:00N 51°42' E 004°36'0 0.0
2018-Jan-21 20:30N 51°42' E 004°36'0 0.0
2018-Jan-21 20:00N 51°42' E 004°36'0 0.0
2018-Jan-21 19:30N 51°42' E 004°36'0 0.0
2018-Jan-21 19:00N 51°42' E 004°36'0 0.0
2018-Jan-21 18:30N 51°42' E 004°36'0 0.0
2018-Jan-21 18:00N 51°42' E 004°36'1 3.0
2018-Jan-21 17:30N 51°43' E 004°37'5 9.3
2018-Jan-21 17:00N 51°48' E 004°37'4 8.5
2018-Jan-21 16:31N 51°50' E 004°31'5 9.5
2018-Jan-21 16:00N 51°51' E 004°24'4 8.0
2018-Jan-21 15:31N 51°54' E 004°19'4 7.0
2018-Jan-21 15:00N 51°55' E 004°25'0 0.0
2018-Jan-21 14:28N 51°55' E 004°25'0 0.0
2018-Jan-21 13:58N 51°55' E 004°25'0 0.0
2018-Jan-21 13:28N 51°55' E 004°25'0 0.0
2018-Jan-21 12:58N 51°55' E 004°25'0 0.0
2018-Jan-21 12:28N 51°55' E 004°25'0 0.0
2018-Jan-21 11:58N 51°55' E 004°25'0 0.0
2018-Jan-21 11:28N 51°55' E 004°25'0 0.0
2018-Jan-21 10:58N 51°55' E 004°25'0 0.0
2018-Jan-21 10:28N 51°55' E 004°25'0 0.0
2018-Jan-21 09:58N 51°55' E 004°25'0 0.0
2018-Jan-21 09:28N 51°55' E 004°25'0 0.0
2018-Jan-21 08:58N 51°55' E 004°25'0 0.0
2018-Jan-21 08:28N 51°55' E 004°25'0 0.0
2018-Jan-21 07:58N 51°55' E 004°25'0 0.0
2018-Jan-21 07:28N 51°55' E 004°25'0 0.0
2018-Jan-21 06:58N 51°55' E 004°25'0 0.0
2018-Jan-21 06:28N 51°55' E 004°25'0 0.0
2018-Jan-21 05:58N 51°55' E 004°25'0 0.0
2018-Jan-21 05:28N 51°55' E 004°25'0 0.0
2018-Jan-21 04:58N 51°55' E 004°25'0 0.0
2018-Jan-21 04:28N 51°55' E 004°25'0 0.0
2018-Jan-21 03:58N 51°55' E 004°25'0 0.0
2018-Jan-21 03:28N 51°55' E 004°25'0 0.0
2018-Jan-21 02:58N 51°55' E 004°25'0 0.0
2018-Jan-21 02:28N 51°55' E 004°25'0 0.0
2018-Jan-21 01:58N 51°55' E 004°25'0 0.0
2018-Jan-21 01:28N 51°55' E 004°25'0 0.0
2018-Jan-21 00:58N 51°55' E 004°25'0 0.0
2018-Jan-21 00:30N 51°55' E 004°25'1 2.1
2018-Jan-21 00:01N 51°54' E 004°24'5 9.4
2018-Jan-20 23:31N 51°54' E 004°16'510.1
2018-Jan-20 23:01N 51°57' E 004°10'510.2
2018-Jan-20 22:31N 51°59' E 004°02'510.9
2018-Jan-20 22:01N 52°00' E 003°54'510.3
2018-Jan-20 21:31N 51°59' E 003°45'711.8
2018-Jan-20 20:54N 51°57' E 003°34'5112.4
2018-Jan-20 16:48N 51°34' E 002°21'414.1
2018-Jan-20 16:30N 51°31' E 002°17'714.6
2018-Jan-20 16:01N 51°25' E 002°09'713.9
2018-Jan-20 15:30N 51°19' E 002°07'714.1
2018-Jan-20 15:00N 51°13' E 002°01'815.2
2018-Jan-20 14:30N 51°08' E 001°51'815.6
2018-Jan-20 14:01N 51°03' E 001°42'816.2
2018-Jan-20 13:29N 50°57' E 001°33'1016.1
2018-Jan-20 12:53N 50°48' E 001°25'4613.5
2018-Jan-20 09:30N 50°23' E 000°26'913.9
2018-Jan-20 08:49N 50°20' E 000°11'413.5
2018-Jan-20 08:29N 50°19' E 000°05'613.1
2018-Jan-20 08:00N 50°17' W 000°05'712.7
2018-Jan-20 07:27N 50°15' W 000°16'10011.4
2018-Jan-19 22:41N 49°49' W 002°45'313.8
2018-Jan-19 22:29N 49°48' W 002°50'1113.9
2018-Jan-19 21:43N 49°43' W 003°04'513.9
2018-Jan-19 21:22N 49°40' W 003°11'513.8
2018-Jan-19 20:58N 49°38' W 003°18'  

Dump ship's entire track history